sensor_id;sensor_type;location;lat;lon;timestamp;pressure;altitude;pressure_sealevel;temperature
15544;BMP180;7873;52.230;12.856;2024-03-02T00:00:03;99791.53;;;29.46
15544;BMP180;7873;52.230;12.856;2024-03-02T00:02:39;99784.34;;;29.40
15544;BMP180;7873;52.230;12.856;2024-03-02T00:05:08;99788.03;;;29.34
15544;BMP180;7873;52.230;12.856;2024-03-02T00:07:37;99784.16;;;29.30
15544;BMP180;7873;52.230;12.856;2024-03-02T00:10:08;99789.47;;;29.25
15544;BMP180;7873;52.230;12.856;2024-03-02T00:12:36;99784.75;;;29.21
15544;BMP180;7873;52.230;12.856;2024-03-02T00:15:04;99782.53;;;29.18
15544;BMP180;7873;52.230;12.856;2024-03-02T00:17:31;99777.81;;;29.14
15544;BMP180;7873;52.230;12.856;2024-03-02T00:19:58;99773.47;;;29.13
15544;BMP180;7873;52.230;12.856;2024-03-02T00:22:25;99776.31;;;29.06
15544;BMP180;7873;52.230;12.856;2024-03-02T00:24:53;99776.31;;;29.06
15544;BMP180;7873;52.230;12.856;2024-03-02T00:27:20;99777.03;;;29.02
15544;BMP180;7873;52.230;12.856;2024-03-02T00:29:47;99773.13;;;28.98
15544;BMP180;7873;52.230;12.856;2024-03-02T00:32:15;99773.88;;;28.93
15544;BMP180;7873;52.230;12.856;2024-03-02T00:34:42;99771.03;;;28.88
15544;BMP180;7873;52.230;12.856;2024-03-02T00:37:09;99774.19;;;28.85
15544;BMP180;7873;52.230;12.856;2024-03-02T00:39:38;99774.06;;;28.80
15544;BMP180;7873;52.230;12.856;2024-03-02T00:42:05;99767.25;;;28.78
15544;BMP180;7873;52.230;12.856;2024-03-02T00:44:33;99776.91;;;28.74
15544;BMP180;7873;52.230;12.856;2024-03-02T00:47:01;99765.16;;;28.68
15544;BMP180;7873;52.230;12.856;2024-03-02T00:49:28;99771.00;;;28.65
15544;BMP180;7873;52.230;12.856;2024-03-02T00:51:55;99763.38;;;28.62
15544;BMP180;7873;52.230;12.856;2024-03-02T00:54:23;99766.53;;;28.59
15544;BMP180;7873;52.230;12.856;2024-03-02T00:56:51;99767.03;;;28.56
15544;BMP180;7873;52.230;12.856;2024-03-02T00:59:20;99763.72;;;28.54
15544;BMP180;7873;52.230;12.856;2024-03-02T01:01:47;99758.44;;;28.48
15544;BMP180;7873;52.230;12.856;2024-03-02T01:04:14;99764.31;;;28.45
15544;BMP180;7873;52.230;12.856;2024-03-02T01:06:41;99762.31;;;28.40
15544;BMP180;7873;52.230;12.856;2024-03-02T01:09:08;99756.88;;;28.40
15544;BMP180;7873;52.230;12.856;2024-03-02T01:11:35;99749.81;;;28.39
15544;BMP180;7873;52.230;12.856;2024-03-02T01:14:03;99748.66;;;28.35
15544;BMP180;7873;52.230;12.856;2024-03-02T01:16:29;99741.22;;;28.31
15544;BMP180;7873;52.230;12.856;2024-03-02T01:18:56;99747.91;;;28.28
15544;BMP180;7873;52.230;12.856;2024-03-02T01:21:22;99743.19;;;28.24
15544;BMP180;7873;52.230;12.856;2024-03-02T01:23:48;99737.66;;;28.19
15544;BMP180;7873;52.230;12.856;2024-03-02T01:26:15;99745.41;;;28.15
15544;BMP180;7873;52.230;12.856;2024-03-02T01:28:42;99739.88;;;28.10
15544;BMP180;7873;52.230;12.856;2024-03-02T01:31:10;99736.81;;;28.07
15544;BMP180;7873;52.230;12.856;2024-03-02T01:33:36;99738.13;;;28.04
15544;BMP180;7873;52.230;12.856;2024-03-02T01:36:03;99733.41;;;28.00
15544;BMP180;7873;52.230;12.856;2024-03-02T01:38:30;99736.59;;;27.97
15544;BMP180;7873;52.230;12.856;2024-03-02T01:40:56;99736.00;;;27.95
15544;BMP180;7873;52.230;12.856;2024-03-02T01:43:23;99738.09;;;27.93
15544;BMP180;7873;52.230;12.856;2024-03-02T01:45:51;99730.69;;;27.88
15544;BMP180;7873;52.230;12.856;2024-03-02T01:48:19;99732.78;;;27.86
15544;BMP180;7873;52.230;12.856;2024-03-02T01:50:46;99723.25;;;27.84
15544;BMP180;7873;52.230;12.856;2024-03-02T01:53:12;99723.72;;;27.81
15544;BMP180;7873;52.230;12.856;2024-03-02T01:55:39;99722.31;;;27.78
15544;BMP180;7873;52.230;12.856;2024-03-02T01:58:05;99715.47;;;27.76
15544;BMP180;7873;52.230;12.856;2024-03-02T02:00:32;99719.50;;;27.73
15544;BMP180;7873;52.230;12.856;2024-03-02T02:02:58;99710.13;;;27.69
15544;BMP180;7873;52.230;12.856;2024-03-02T02:05:26;99717.66;;;27.67
15544;BMP180;7873;52.230;12.856;2024-03-02T02:07:54;99718.13;;;27.64
15544;BMP180;7873;52.230;12.856;2024-03-02T02:10:20;99721.66;;;27.65
15544;BMP180;7873;52.230;12.856;2024-03-02T02:12:47;99713.19;;;27.61
15544;BMP180;7873;52.230;12.856;2024-03-02T02:15:26;99716.94;;;27.60
15544;BMP180;7873;52.230;12.856;2024-03-02T02:17:53;99712.81;;;27.58
15544;BMP180;7873;52.230;12.856;2024-03-02T02:20:19;99717.63;;;27.56
15544;BMP180;7873;52.230;12.856;2024-03-02T02:22:57;99713.75;;;27.52
15544;BMP180;7873;52.230;12.856;2024-03-02T02:25:24;99715.84;;;27.50
15544;BMP180;7873;52.230;12.856;2024-03-02T02:27:51;99711.72;;;27.47
15544;BMP180;7873;52.230;12.856;2024-03-02T02:30:21;99708.41;;;27.45
15544;BMP180;7873;52.230;12.856;2024-03-02T02:32:48;99708.88;;;27.42
15544;BMP180;7873;52.230;12.856;2024-03-02T02:35:15;99705.84;;;27.39
15544;BMP180;7873;52.230;12.856;2024-03-02T02:37:42;99706.25;;;27.36
15544;BMP180;7873;52.230;12.856;2024-03-02T02:40:11;99699.47;;;27.34
15544;BMP180;7873;52.230;12.856;2024-03-02T02:42:38;99709.44;;;27.33
15544;BMP180;7873;52.230;12.856;2024-03-02T02:45:05;99706.13;;;27.31
15544;BMP180;7873;52.230;12.856;2024-03-02T02:47:32;99709.09;;;27.30
15544;BMP180;7873;52.230;12.856;2024-03-02T02:50:01;99708.72;;;27.26
15544;BMP180;7873;52.230;12.856;2024-03-02T02:52:31;99715.16;;;27.25
15544;BMP180;7873;52.230;12.856;2024-03-02T02:54:58;99709.97;;;27.24
15544;BMP180;7873;52.230;12.856;2024-03-02T02:57:26;99714.78;;;27.22
15544;BMP180;7873;52.230;12.856;2024-03-02T02:59:53;99716.91;;;27.20
15544;BMP180;7873;52.230;12.856;2024-03-02T03:02:19;99719.00;;;27.18
15544;BMP180;7873;52.230;12.856;2024-03-02T03:04:46;99713.00;;;27.16
15544;BMP180;7873;52.230;12.856;2024-03-02T03:07:12;99714.28;;;27.13
15544;BMP180;7873;52.230;12.856;2024-03-02T03:09:39;99718.88;;;27.13
15544;BMP180;7873;52.230;12.856;2024-03-02T03:12:05;99725.75;;;27.09
15544;BMP180;7873;52.230;12.856;2024-03-02T03:14:33;99735.13;;;27.06
15544;BMP180;7873;52.230;12.856;2024-03-02T03:17:00;99728.31;;;27.04
15544;BMP180;7873;52.230;12.856;2024-03-02T03:19:26;99726.03;;;27.01
15544;BMP180;7873;52.230;12.856;2024-03-02T03:21:53;99729.81;;;27.00
15544;BMP180;7873;52.230;12.856;2024-03-02T03:24:19;99727.34;;;26.98
15544;BMP180;7873;52.230;12.856;2024-03-02T03:26:46;99726.75;;;26.96
15544;BMP180;7873;52.230;12.856;2024-03-02T03:29:12;99725.56;;;26.92
15544;BMP180;7873;52.230;12.856;2024-03-02T03:31:40;99724.13;;;26.90
15544;BMP180;7873;52.230;12.856;2024-03-02T03:34:07;99723.28;;;26.89
15544;BMP180;7873;52.230;12.856;2024-03-02T03:36:33;99720.56;;;26.89
15544;BMP180;7873;52.230;12.856;2024-03-02T03:39:00;99722.69;;;26.87
15544;BMP180;7873;52.230;12.856;2024-03-02T03:41:28;99719.19;;;26.87
15544;BMP180;7873;52.230;12.856;2024-03-02T03:43:55;99727.28;;;26.87
15544;BMP180;7873;52.230;12.856;2024-03-02T03:46:21;99725.25;;;26.82
15544;BMP180;7873;52.230;12.856;2024-03-02T03:48:49;99731.91;;;26.80
15544;BMP180;7873;52.230;12.856;2024-03-02T03:51:16;99725.91;;;26.78
15544;BMP180;7873;52.230;12.856;2024-03-02T03:53:42;99728.84;;;26.76
15544;BMP180;7873;52.230;12.856;2024-03-02T03:56:09;99730.97;;;26.74
15544;BMP180;7873;52.230;12.856;2024-03-02T03:58:35;99731.16;;;26.73
15544;BMP180;7873;52.230;12.856;2024-03-02T04:01:02;99733.66;;;26.74
15544;BMP180;7873;52.230;12.856;2024-03-02T04:03:28;99734.72;;;26.73
15544;BMP180;7873;52.230;12.856;2024-03-02T04:05:57;99739.28;;;26.73
15544;BMP180;7873;52.230;12.856;2024-03-02T04:08:23;99735.16;;;26.70
15544;BMP180;7873;52.230;12.856;2024-03-02T04:10:50;99738.06;;;26.69
15544;BMP180;7873;52.230;12.856;2024-03-02T04:13:16;99734.78;;;26.67
15544;BMP180;7873;52.230;12.856;2024-03-02T04:15:43;99737.69;;;26.65
15544;BMP180;7873;52.230;12.856;2024-03-02T04:18:09;99733.56;;;26.63
15544;BMP180;7873;52.230;12.856;2024-03-02T04:20:36;99733.19;;;26.59
15544;BMP180;7873;52.230;12.856;2024-03-02T04:23:04;99744.00;;;26.59
15544;BMP180;7873;52.230;12.856;2024-03-02T04:25:30;99740.47;;;26.59
15544;BMP180;7873;52.230;12.856;2024-03-02T04:27:56;99746.09;;;26.57
15544;BMP180;7873;52.230;12.856;2024-03-02T04:30:23;99747.13;;;26.56
15544;BMP180;7873;52.230;12.856;2024-03-02T04:32:50;99755.25;;;26.56
15544;BMP180;7873;52.230;12.856;2024-03-02T04:35:17;99764.38;;;26.55
15544;BMP180;7873;52.230;12.856;2024-03-02T04:37:43;99771.66;;;26.55
15544;BMP180;7873;52.230;12.856;2024-03-02T04:40:12;99770.00;;;26.54
15544;BMP180;7873;52.230;12.856;2024-03-02T04:42:38;99771.50;;;26.50
15544;BMP180;7873;52.230;12.856;2024-03-02T04:45:05;99769.03;;;26.48
15544;BMP180;7873;52.230;12.856;2024-03-02T04:47:32;99768.19;;;26.48
15544;BMP180;7873;52.230;12.856;2024-03-02T04:49:59;99775.66;;;26.46
15544;BMP180;7873;52.230;12.856;2024-03-02T04:52:25;99780.22;;;26.45
15544;BMP180;7873;52.230;12.856;2024-03-02T04:54:51;99775.88;;;26.44
15544;BMP180;7873;52.230;12.856;2024-03-02T04:57:46;99776.91;;;26.43
15544;BMP180;7873;52.230;12.856;2024-03-02T05:00:13;99777.75;;;26.44
15544;BMP180;7873;52.230;12.856;2024-03-02T05:02:40;99776.56;;;26.40
15544;BMP180;7873;52.230;12.856;2024-03-02T05:05:06;99776.75;;;26.38
15544;BMP180;7873;52.230;12.856;2024-03-02T05:07:33;99773.03;;;26.39
15544;BMP180;7873;52.230;12.856;2024-03-02T05:09:59;99773.47;;;26.36
15544;BMP180;7873;52.230;12.856;2024-03-02T05:12:26;99770.16;;;26.34
15544;BMP180;7873;52.230;12.856;2024-03-02T05:15:23;99762.28;;;26.33
15544;BMP180;7873;52.230;12.856;2024-03-02T05:17:49;99768.97;;;26.30
15544;BMP180;7873;52.230;12.856;2024-03-02T05:20:16;99777.06;;;26.30
15544;BMP180;7873;52.230;12.856;2024-03-02T05:22:43;99784.56;;;26.28
15544;BMP180;7873;52.230;12.856;2024-03-02T05:25:09;99775.63;;;26.28
15544;BMP180;7873;52.230;12.856;2024-03-02T05:27:36;99779.34;;;26.27
15544;BMP180;7873;52.230;12.856;2024-03-02T05:30:04;99776.91;;;26.25
15544;BMP180;7873;52.230;12.856;2024-03-02T05:32:34;99773.59;;;26.23
15544;BMP180;7873;52.230;12.856;2024-03-02T05:35:00;99774.66;;;26.22
15544;BMP180;7873;52.230;12.856;2024-03-02T05:37:28;99774.41;;;26.24
15544;BMP180;7873;52.230;12.856;2024-03-02T05:39:54;99785.19;;;26.24
15544;BMP180;7873;52.230;12.856;2024-03-02T05:42:21;99781.69;;;26.23
15544;BMP180;7873;52.230;12.856;2024-03-02T05:44:47;99785.84;;;26.19
15544;BMP180;7873;52.230;12.856;2024-03-02T05:47:14;99791.50;;;26.18
15544;BMP180;7873;52.230;12.856;2024-03-02T05:49:41;99789.22;;;26.15
15544;BMP180;7873;52.230;12.856;2024-03-02T05:52:08;99806.22;;;26.15
15544;BMP180;7873;52.230;12.856;2024-03-02T05:54:34;99806.22;;;26.15
15544;BMP180;7873;52.230;12.856;2024-03-02T05:57:01;99813.28;;;26.16
15544;BMP180;7873;52.230;12.856;2024-03-02T05:59:42;99812.31;;;26.11
15544;BMP180;7873;52.230;12.856;2024-03-02T06:02:08;99813.13;;;26.11
15544;BMP180;7873;52.230;12.856;2024-03-02T06:04:35;99808.78;;;26.10
15544;BMP180;7873;52.230;12.856;2024-03-02T06:07:03;99811.91;;;26.07
15544;BMP180;7873;52.230;12.856;2024-03-02T06:09:29;99813.16;;;26.05
15544;BMP180;7873;52.230;12.856;2024-03-02T06:11:56;99821.50;;;26.03
15544;BMP180;7873;52.230;12.856;2024-03-02T06:14:22;99820.03;;;26.01
15544;BMP180;7873;52.230;12.856;2024-03-02T06:16:49;99822.97;;;25.99
15544;BMP180;7873;52.230;12.856;2024-03-02T06:19:15;99812.59;;;25.96
15544;BMP180;7873;52.230;12.856;2024-03-02T06:21:42;99815.53;;;25.95
15544;BMP180;7873;52.230;12.856;2024-03-02T06:24:10;99819.03;;;25.95
15544;BMP180;7873;52.230;12.856;2024-03-02T06:26:36;99816.34;;;25.95
15544;BMP180;7873;52.230;12.856;2024-03-02T06:29:02;99822.13;;;25.99
15544;BMP180;7873;52.230;12.856;2024-03-02T06:31:29;99821.97;;;25.94
15544;BMP180;7873;52.230;12.856;2024-03-02T06:33:56;99831.31;;;25.91
15544;BMP180;7873;52.230;12.856;2024-03-02T06:36:22;99833.75;;;25.99
15544;BMP180;7873;52.230;12.856;2024-03-02T06:38:49;99827.09;;;26.02
15544;BMP180;7873;52.230;12.856;2024-03-02T06:41:17;99834.72;;;26.11
15544;BMP180;7873;52.230;12.856;2024-03-02T06:43:43;99828.06;;;26.14
15544;BMP180;7873;52.230;12.856;2024-03-02T06:46:10;99835.28;;;26.20
15544;BMP180;7873;52.230;12.856;2024-03-02T06:48:39;99830.47;;;26.22
15544;BMP180;7873;52.230;12.856;2024-03-02T06:51:06;99831.31;;;26.22
15544;BMP180;7873;52.230;12.856;2024-03-02T06:53:32;99826.72;;;26.23
15544;BMP180;7873;52.230;12.856;2024-03-02T06:55:59;99832.72;;;26.25
15544;BMP180;7873;52.230;12.856;2024-03-02T06:58:27;99832.53;;;26.26
15544;BMP180;7873;52.230;12.856;2024-03-02T07:00:54;99821.94;;;26.25
15544;BMP180;7873;52.230;12.856;2024-03-02T07:03:20;99822.19;;;26.23
15544;BMP180;7873;52.230;12.856;2024-03-02T07:05:46;99829.44;;;26.23
15544;BMP180;7873;52.230;12.856;2024-03-02T07:08:13;99822.38;;;26.22
15544;BMP180;7873;52.230;12.856;2024-03-02T07:10:40;99827.16;;;26.20
15544;BMP180;7873;52.230;12.856;2024-03-02T07:13:06;99816.97;;;26.22
15544;BMP180;7873;52.230;12.856;2024-03-02T07:15:34;99827.78;;;26.22
15544;BMP180;7873;52.230;12.856;2024-03-02T07:18:19;99830.47;;;26.22
15544;BMP180;7873;52.230;12.856;2024-03-02T07:20:46;99830.47;;;26.22
15544;BMP180;7873;52.230;12.856;2024-03-02T07:23:14;99841.28;;;26.22
15544;BMP180;7873;52.230;12.856;2024-03-02T07:25:41;99843.38;;;26.20
15544;BMP180;7873;52.230;12.856;2024-03-02T07:28:07;99841.47;;;26.20
15544;BMP180;7873;52.230;12.856;2024-03-02T07:30:35;99837.38;;;26.18
15544;BMP180;7873;52.230;12.856;2024-03-02T07:35:30;99845.91;;;26.15
15544;BMP180;7873;52.230;12.856;2024-03-02T07:37:57;99851.28;;;26.15
15544;BMP180;7873;52.230;12.856;2024-03-02T07:40:24;99860.44;;;26.14
15544;BMP180;7873;52.230;12.856;2024-03-02T07:42:51;99867.53;;;26.08
15544;BMP180;7873;52.230;12.856;2024-03-02T07:45:17;99860.22;;;26.09
15544;BMP180;7873;52.230;12.856;2024-03-02T07:47:45;99868.78;;;26.06
15544;BMP180;7873;52.230;12.856;2024-03-02T07:50:12;99872.38;;;25.93
15544;BMP180;7873;52.230;12.856;2024-03-02T07:52:38;99871.22;;;25.76
15544;BMP180;7873;52.230;12.856;2024-03-02T07:55:05;99881.84;;;25.65
15544;BMP180;7873;52.230;12.856;2024-03-02T07:57:32;99884.56;;;25.58
15544;BMP180;7873;52.230;12.856;2024-03-02T07:59:58;99883.97;;;25.50
15544;BMP180;7873;52.230;12.856;2024-03-02T08:02:25;99895.63;;;25.31
15544;BMP180;7873;52.230;12.856;2024-03-02T08:04:53;99885.69;;;25.32
15544;BMP180;7873;52.230;12.856;2024-03-02T08:07:20;99890.88;;;25.33
15544;BMP180;7873;52.230;12.856;2024-03-02T08:09:46;99886.50;;;25.32
15544;BMP180;7873;52.230;12.856;2024-03-02T08:12:13;99879.47;;;25.31
15544;BMP180;7873;52.230;12.856;2024-03-02T08:14:39;99893.78;;;25.32
15544;BMP180;7873;52.230;12.856;2024-03-02T08:17:06;99895.63;;;25.31
15544;BMP180;7873;52.230;12.856;2024-03-02T08:19:35;99894.81;;;25.31
15544;BMP180;7873;52.230;12.856;2024-03-02T08:22:03;99891.28;;;25.30
15544;BMP180;7873;52.230;12.856;2024-03-02T08:24:29;99897.09;;;25.27
15544;BMP180;7873;52.230;12.856;2024-03-02T08:26:56;99894.59;;;25.26
15544;BMP180;7873;52.230;12.856;2024-03-02T08:29:22;99909.97;;;25.25
15544;BMP180;7873;52.230;12.856;2024-03-02T08:31:49;99908.50;;;25.23
15544;BMP180;7873;52.230;12.856;2024-03-02T08:34:15;99926.53;;;25.16
15544;BMP180;7873;52.230;12.856;2024-03-02T08:36:42;99921.56;;;25.00
15544;BMP180;7873;52.230;12.856;2024-03-02T08:39:10;99927.38;;;25.03
15544;BMP180;7873;52.230;12.856;2024-03-02T08:41:41;99925.09;;;25.07
15544;BMP180;7873;52.230;12.856;2024-03-02T08:44:07;99921.75;;;25.05
15544;BMP180;7873;52.230;12.856;2024-03-02T08:46:34;99924.88;;;25.02
15544;BMP180;7873;52.230;12.856;2024-03-02T08:49:00;99928.00;;;24.99
15544;BMP180;7873;52.230;12.856;2024-03-02T08:51:27;99921.56;;;25.00
15544;BMP180;7873;52.230;12.856;2024-03-02T08:53:53;99932.78;;;25.03
15544;BMP180;7873;52.230;12.856;2024-03-02T08:56:21;99933.81;;;25.02
15544;BMP180;7873;52.230;12.856;2024-03-02T08:58:49;99934.00;;;25.01
15544;BMP180;7873;52.230;12.856;2024-03-02T09:01:16;99934.00;;;25.01
15544;BMP180;7873;52.230;12.856;2024-03-02T09:03:43;99932.34;;;25.00
15544;BMP180;7873;52.230;12.856;2024-03-02T09:06:10;99934.41;;;25.04
15544;BMP180;7873;52.230;12.856;2024-03-02T09:08:37;99938.56;;;25.07
15544;BMP180;7873;52.230;12.856;2024-03-02T09:11:04;99935.03;;;25.06
15544;BMP180;7873;52.230;12.856;2024-03-02T09:13:32;99932.34;;;25.06
15544;BMP180;7873;52.230;12.856;2024-03-02T09:15:59;99938.78;;;25.05
15544;BMP180;7873;52.230;12.856;2024-03-02T09:18:25;99938.34;;;25.02
15544;BMP180;7873;52.230;12.856;2024-03-02T09:20:52;99943.97;;;25.00
15544;BMP180;7873;52.230;12.856;2024-03-02T09:23:19;99940.41;;;25.00
15544;BMP180;7873;52.230;12.856;2024-03-02T09:25:45;99937.97;;;24.92
15544;BMP180;7873;52.230;12.856;2024-03-02T09:28:12;99945.63;;;24.88
15544;BMP180;7873;52.230;12.856;2024-03-02T09:30:40;99946.66;;;24.87
15544;BMP180;7873;52.230;12.856;2024-03-02T09:33:06;99952.66;;;24.83
15544;BMP180;7873;52.230;12.856;2024-03-02T09:35:32;99953.06;;;24.80
15544;BMP180;7873;52.230;12.856;2024-03-02T09:37:59;99948.09;;;24.83
15544;BMP180;7873;52.230;12.856;2024-03-02T09:40:25;99956.81;;;24.85
15544;BMP180;7873;52.230;12.856;2024-03-02T09:42:53;99957.22;;;24.82
15544;BMP180;7873;52.230;12.856;2024-03-02T09:45:23;99962.59;;;24.82
15544;BMP180;7873;52.230;12.856;2024-03-02T09:47:51;99958.03;;;24.83
15544;BMP180;7873;52.230;12.856;2024-03-02T09:50:17;99966.75;;;24.85
15544;BMP180;7873;52.230;12.856;2024-03-02T09:52:47;99972.97;;;24.85
15544;BMP180;7873;52.230;12.856;2024-03-02T09:55:15;99971.31;;;24.84
15544;BMP180;7873;52.230;12.856;2024-03-02T09:57:42;99960.94;;;24.81
15544;BMP180;7873;52.230;12.856;2024-03-02T10:00:09;99965.28;;;24.82
15544;BMP180;7873;52.230;12.856;2024-03-02T10:02:40;99962.19;;;24.79
15544;BMP180;7873;52.230;12.856;2024-03-02T10:05:08;99959.50;;;24.79
15544;BMP180;7873;52.230;12.856;2024-03-02T10:07:35;99964.47;;;24.75
15544;BMP180;7873;52.230;12.856;2024-03-02T10:10:12;99970.28;;;24.72
15544;BMP180;7873;52.230;12.856;2024-03-02T10:12:39;99961.53;;;24.70
15544;BMP180;7873;52.230;12.856;2024-03-02T10:15:06;99970.47;;;24.71
15544;BMP180;7873;52.230;12.856;2024-03-02T10:17:35;99965.69;;;24.73
15544;BMP180;7873;52.230;12.856;2024-03-02T10:20:24;99963.84;;;24.73
15544;BMP180;7873;52.230;12.856;2024-03-02T10:22:51;99956.59;;;24.74
15544;BMP180;7873;52.230;12.856;2024-03-02T10:25:30;99955.13;;;24.71
15544;BMP180;7873;52.230;12.856;2024-03-02T10:27:58;99955.34;;;24.70
15544;BMP180;7873;52.230;12.856;2024-03-02T10:30:25;99959.88;;;24.69
15544;BMP180;7873;52.230;12.856;2024-03-02T10:32:53;99949.34;;;24.68
15544;BMP180;7873;52.230;12.856;2024-03-02T10:35:20;99940.66;;;24.66
15544;BMP180;7873;52.230;12.856;2024-03-02T10:37:48;99936.94;;;24.67
15544;BMP180;7873;52.230;12.856;2024-03-02T10:40:15;99943.13;;;24.67
15544;BMP180;7873;52.230;12.856;2024-03-02T10:42:42;99939.41;;;24.62
15544;BMP180;7873;52.230;12.856;2024-03-02T10:45:09;99944.94;;;24.47
15544;BMP180;7873;52.230;12.856;2024-03-02T10:47:37;99935.41;;;24.38
15544;BMP180;7873;52.230;12.856;2024-03-02T10:50:05;99932.09;;;24.36
15544;BMP180;7873;52.230;12.856;2024-03-02T10:52:34;99941.38;;;24.34
15544;BMP180;7873;52.230;12.856;2024-03-02T10:55:02;99938.91;;;24.26
15544;BMP180;7873;52.230;12.856;2024-03-02T10:57:40;99939.09;;;24.18
15544;BMP180;7873;52.230;12.856;2024-03-02T11:00:08;99936.78;;;24.08
15544;BMP180;7873;52.230;12.856;2024-03-02T11:02:42;99939.47;;;24.08
15544;BMP180;7873;52.230;12.856;2024-03-02T11:05:18;99933.25;;;24.08
15544;BMP180;7873;52.230;12.856;2024-03-02T11:07:48;99932.22;;;24.09
15544;BMP180;7873;52.230;12.856;2024-03-02T11:10:17;99928.09;;;24.13
15544;BMP180;7873;52.230;12.856;2024-03-02T11:12:48;99927.09;;;24.14
15544;BMP180;7873;52.230;12.856;2024-03-02T11:15:18;99920.47;;;24.16
15544;BMP180;7873;52.230;12.856;2024-03-02T11:17:45;99925.66;;;24.18
15544;BMP180;7873;52.230;12.856;2024-03-02T11:20:13;99927.50;;;24.17
15544;BMP180;7873;52.230;12.856;2024-03-02T11:22:41;99933.91;;;24.16
15544;BMP180;7873;52.230;12.856;2024-03-02T11:25:24;99930.38;;;24.09
15544;BMP180;7873;52.230;12.856;2024-03-02T11:27:59;99926.63;;;23.91
15544;BMP180;7873;52.230;12.856;2024-03-02T11:30:54;99924.28;;;23.82
15544;BMP180;7873;52.230;12.856;2024-03-02T11:33:24;99929.06;;;23.86
15544;BMP180;7873;52.230;12.856;2024-03-02T11:35:56;99927.41;;;23.91
15544;BMP180;7873;52.230;12.856;2024-03-02T11:38:27;99927.84;;;23.95
15544;BMP180;7873;52.230;12.856;2024-03-02T11:40:55;99930.13;;;23.98
15544;BMP180;7873;52.230;12.856;2024-03-02T11:43:22;99935.13;;;24.07
15544;BMP180;7873;52.230;12.856;2024-03-02T11:45:56;99922.50;;;24.08
15544;BMP180;7873;52.230;12.856;2024-03-02T11:48:24;99932.47;;;24.14
15544;BMP180;7873;52.230;12.856;2024-03-02T11:50:51;99928.13;;;24.26
15544;BMP180;7873;52.230;12.856;2024-03-02T11:53:19;99932.47;;;24.27
15544;BMP180;7873;52.230;12.856;2024-03-02T11:55:46;99933.53;;;24.32
15544;BMP180;7873;52.230;12.856;2024-03-02T11:58:14;99935.63;;;24.50
15544;BMP180;7873;52.230;12.856;2024-03-02T12:00:40;99938.78;;;24.60
15544;BMP180;7873;52.230;12.856;2024-03-02T12:03:08;99934.66;;;24.64
15544;BMP180;7873;52.230;12.856;2024-03-02T12:05:36;99934.63;;;24.70
15544;BMP180;7873;52.230;12.856;2024-03-02T12:08:03;99941.88;;;24.83
15544;BMP180;7873;52.230;12.856;2024-03-02T12:10:31;99926.75;;;24.88
15544;BMP180;7873;52.230;12.856;2024-03-02T12:12:57;99922.84;;;24.97
15544;BMP180;7873;52.230;12.856;2024-03-02T12:15:27;99924.50;;;24.98
15544;BMP180;7873;52.230;12.856;2024-03-02T12:17:54;99925.31;;;24.92
15544;BMP180;7873;52.230;12.856;2024-03-02T12:20:22;99928.22;;;24.97
15544;BMP180;7873;52.230;12.856;2024-03-02T12:22:50;99918.50;;;24.96
15544;BMP180;7873;52.230;12.856;2024-03-02T12:25:17;99920.75;;;24.93
15544;BMP180;7873;52.230;12.856;2024-03-02T12:27:44;99914.75;;;24.84
15544;BMP180;7873;52.230;12.856;2024-03-02T12:30:11;99912.91;;;24.85
15544;BMP180;7873;52.230;12.856;2024-03-02T12:32:40;99909.56;;;24.83
15544;BMP180;7873;52.230;12.856;2024-03-02T12:35:08;99913.50;;;24.74
15544;BMP180;7873;52.230;12.856;2024-03-02T12:37:42;99910.63;;;24.62
15544;BMP180;7873;52.230;12.856;2024-03-02T12:40:10;99907.09;;;24.55
15544;BMP180;7873;52.230;12.856;2024-03-02T12:42:37;99904.34;;;24.42
15544;BMP180;7873;52.230;12.856;2024-03-02T12:45:04;99898.34;;;24.40
15544;BMP180;7873;52.230;12.856;2024-03-02T12:47:31;99900.63;;;24.30
15544;BMP180;7873;52.230;12.856;2024-03-02T12:49:59;99902.06;;;24.26
15544;BMP180;7873;52.230;12.856;2024-03-02T12:52:26;99901.03;;;24.27
15544;BMP180;7873;52.230;12.856;2024-03-02T12:54:54;99898.34;;;24.27
15544;BMP180;7873;52.230;12.856;2024-03-02T12:57:25;99899.78;;;24.30
15544;BMP180;7873;52.230;12.856;2024-03-02T12:59:51;99897.31;;;24.28
15544;BMP180;7873;52.230;12.856;2024-03-02T13:02:18;99887.78;;;24.26
15544;BMP180;7873;52.230;12.856;2024-03-02T13:04:52;99887.56;;;24.21
15544;BMP180;7873;52.230;12.856;2024-03-02T13:07:20;99892.13;;;24.20
15544;BMP180;7873;52.230;12.856;2024-03-02T13:09:47;99892.94;;;24.21
15544;BMP180;7873;52.230;12.856;2024-03-02T13:12:15;99886.72;;;24.20
15544;BMP180;7873;52.230;12.856;2024-03-02T13:14:41;99894.00;;;24.20
15544;BMP180;7873;52.230;12.856;2024-03-02T13:17:08;99888.81;;;24.18
15544;BMP180;7873;52.230;12.856;2024-03-02T13:19:35;99886.09;;;24.18
15544;BMP180;7873;52.230;12.856;2024-03-02T13:22:01;99894.41;;;24.17
15544;BMP180;7873;52.230;12.856;2024-03-02T13:24:30;99892.53;;;24.17
15544;BMP180;7873;52.230;12.856;2024-03-02T13:26:56;99890.88;;;24.16
15544;BMP180;7873;52.230;12.856;2024-03-02T13:29:23;99889.84;;;24.17
15544;BMP180;7873;52.230;12.856;2024-03-02T13:31:50;99882.00;;;24.16
15544;BMP180;7873;52.230;12.856;2024-03-02T13:34:17;99884.69;;;24.16
15544;BMP180;7873;52.230;12.856;2024-03-02T13:36:43;99880.09;;;24.10
15544;BMP180;7873;52.230;12.856;2024-03-02T13:39:10;99886.75;;;24.14
15544;BMP180;7873;52.230;12.856;2024-03-02T13:41:42;99888.19;;;24.16
15544;BMP180;7873;52.230;12.856;2024-03-02T13:44:17;99882.59;;;24.18
15544;BMP180;7873;52.230;12.856;2024-03-02T13:46:43;99877.84;;;24.20
15544;BMP180;7873;52.230;12.856;2024-03-02T13:49:11;99881.56;;;24.19
15544;BMP180;7873;52.230;12.856;2024-03-02T13:51:37;99881.34;;;24.20
15544;BMP180;7873;52.230;12.856;2024-03-02T13:54:04;99871.44;;;24.21
15544;BMP180;7873;52.230;12.856;2024-03-02T13:56:31;99876.59;;;24.22
15544;BMP180;7873;52.230;12.856;2024-03-02T13:58:59;99869.38;;;24.23
15544;BMP180;7873;52.230;12.856;2024-03-02T14:01:25;99870.00;;;24.25
15544;BMP180;7873;52.230;12.856;2024-03-02T14:03:52;99872.25;;;24.28
15544;BMP180;7873;52.230;12.856;2024-03-02T14:06:20;99872.88;;;24.30
15544;BMP180;7873;52.230;12.856;2024-03-02T14:08:46;99873.50;;;24.32
15544;BMP180;7873;52.230;12.856;2024-03-02T14:11:14;99873.50;;;24.32
15544;BMP180;7873;52.230;12.856;2024-03-02T14:13:42;99874.13;;;24.34